sensor_id;sensor_type;location;lat;lon;timestamp;temperature;humidity
20795;DHT22;28087;-33.874;151.240;2022-12-19T01:00:53;18.90;99.90
20795;DHT22;28087;-33.874;151.240;2022-12-19T01:03:30;18.90;99.90
20795;DHT22;28087;-33.874;151.240;2022-12-19T01:16:56;19.00;99.90
20795;DHT22;28087;-33.874;151.240;2022-12-19T01:19:32;18.90;99.90
20795;DHT22;28087;-33.874;151.240;2022-12-19T01:40:38;19.30;99.90
20795;DHT22;28087;-33.874;151.240;2022-12-19T01:43:18;19.30;99.90
20795;DHT22;28087;-33.874;151.240;2022-12-19T01:45:56;19.40;99.90
20795;DHT22;28087;-33.874;151.240;2022-12-19T02:01:40;19.20;99.90
20795;DHT22;28087;-33.874;151.240;2022-12-19T02:31:47;19.40;99.90
20795;DHT22;28087;-33.874;151.240;2022-12-19T02:34:28;19.60;99.90
20795;DHT22;28087;-33.874;151.240;2022-12-19T02:37:16;19.80;99.90
20795;DHT22;28087;-33.874;151.240;2022-12-19T02:39:58;19.90;99.90
20795;DHT22;28087;-33.874;151.240;2022-12-19T02:50:43;19.90;99.90
20795;DHT22;28087;-33.874;151.240;2022-12-19T02:53:21;20.20;99.90
20795;DHT22;28087;-33.874;151.240;2022-12-19T02:56:14;20.30;99.90
20795;DHT22;28087;-33.874;151.240;2022-12-19T02:59:09;20.40;99.90
20795;DHT22;28087;-33.874;151.240;2022-12-19T03:01:54;20.60;99.90
20795;DHT22;28087;-33.874;151.240;2022-12-19T03:04:43;20.50;99.90
20795;DHT22;28087;-33.874;151.240;2022-12-19T03:07:28;20.60;99.90
20795;DHT22;28087;-33.874;151.240;2022-12-19T03:10:14;20.60;99.90
20795;DHT22;28087;-33.874;151.240;2022-12-19T03:13:00;20.60;99.90
20795;DHT22;28087;-33.874;151.240;2022-12-19T03:18:15;20.80;99.90
20795;DHT22;28087;-33.874;151.240;2022-12-19T03:21:03;20.70;99.90
20795;DHT22;28087;-33.874;151.240;2022-12-19T03:23:39;20.50;99.90
20795;DHT22;28087;-33.874;151.240;2022-12-19T03:26:18;20.60;99.90
20795;DHT22;28087;-33.874;151.240;2022-12-19T03:28:56;20.60;99.90
20795;DHT22;28087;-33.874;151.240;2022-12-19T03:45:01;20.50;99.90
20795;DHT22;28087;-33.874;151.240;2022-12-19T03:58:33;20.30;99.90
20795;DHT22;28087;-33.874;151.240;2022-12-19T04:01:10;20.20;99.90
20795;DHT22;28087;-33.874;151.240;2022-12-19T04:11:54;20.30;99.90
20795;DHT22;28087;-33.874;151.240;2022-12-19T04:19:56;20.50;99.90
20795;DHT22;28087;-33.874;151.240;2022-12-19T04:30:33;20.50;99.90
20795;DHT22;28087;-33.874;151.240;2022-12-19T05:25:17;19.60;99.90
20795;DHT22;28087;-33.874;151.240;2022-12-19T05:27:58;19.70;99.90
20795;DHT22;28087;-33.874;151.240;2022-12-19T06:17:52;19.30;99.90
20795;DHT22;28087;-33.874;151.240;2022-12-19T07:13:07;19.00;99.90
20795;DHT22;28087;-33.874;151.240;2022-12-19T07:31:30;19.10;99.90
20795;DHT22;28087;-33.874;151.240;2022-12-19T08:00:17;19.00;99.90
20795;DHT22;28087;-33.874;151.240;2022-12-19T08:08:09;18.90;99.90
20795;DHT22;28087;-33.874;151.240;2022-12-19T08:10:48;18.70;99.90
20795;DHT22;28087;-33.874;151.240;2022-12-19T08:13:24;18.70;99.90
20795;DHT22;28087;-33.874;151.240;2022-12-19T08:16:10;18.70;99.90
20795;DHT22;28087;-33.874;151.240;2022-12-19T08:18:50;18.70;99.90
20795;DHT22;28087;-33.874;151.240;2022-12-19T08:21:30;18.60;99.90
20795;DHT22;28087;-33.874;151.240;2022-12-19T09:03:25;18.80;99.90
20795;DHT22;28087;-33.874;151.240;2022-12-19T09:06:24;18.70;99.90
20795;DHT22;28087;-33.874;151.240;2022-12-19T09:09:02;18.60;99.90
20795;DHT22;28087;-33.874;151.240;2022-12-19T09:35:35;18.40;99.90
20795;DHT22;28087;-33.874;151.240;2022-12-19T09:38:12;18.60;99.90
20795;DHT22;28087;-33.874;151.240;2022-12-19T09:41:13;18.60;99.90
20795;DHT22;28087;-33.874;151.240;2022-12-19T09:44:03;18.50;99.90
20795;DHT22;28087;-33.874;151.240;2022-12-19T10:31:15;18.50;99.90
20795;DHT22;28087;-33.874;151.240;2022-12-19T10:33:56;18.50;99.90
20795;DHT22;28087;-33.874;151.240;2022-12-19T10:36:43;18.40;99.90
20795;DHT22;28087;-33.874;151.240;2022-12-19T10:39:50;18.30;99.90
20795;DHT22;28087;-33.874;151.240;2022-12-19T10:42:35;18.20;99.90
20795;DHT22;28087;-33.874;151.240;2022-12-19T10:45:19;18.10;99.90
20795;DHT22;28087;-33.874;151.240;2022-12-19T10:48:05;18.10;99.90
20795;DHT22;28087;-33.874;151.240;2022-12-19T10:51:01;18.10;99.90
20795;DHT22;28087;-33.874;151.240;2022-12-19T10:53:37;18.10;99.90
20795;DHT22;28087;-33.874;151.240;2022-12-19T10:56:25;18.20;99.90
20795;DHT22;28087;-33.874;151.240;2022-12-19T10:59:16;18.20;99.90
20795;DHT22;28087;-33.874;151.240;2022-12-19T11:01:53;18.20;99.90
20795;DHT22;28087;-33.874;151.240;2022-12-19T13:43:01;18.20;99.90
20795;DHT22;28087;-33.874;151.240;2022-12-19T13:45:56;18.10;99.90
20795;DHT22;28087;-33.874;151.240;2022-12-19T13:48:36;18.10;99.90
20795;DHT22;28087;-33.874;151.240;2022-12-19T13:51:20;18.10;99.90
20795;DHT22;28087;-33.874;151.240;2022-12-19T13:53:56;18.10;99.90
20795;DHT22;28087;-33.874;151.240;2022-12-19T13:59:10;18.10;99.90
20795;DHT22;28087;-33.874;151.240;2022-12-19T14:04:27;18.00;99.90
20795;DHT22;28087;-33.874;151.240;2022-12-19T14:07:26;18.00;99.90
20795;DHT22;28087;-33.874;151.240;2022-12-19T14:10:13;17.90;99.90
20795;DHT22;28087;-33.874;151.240;2022-12-19T14:13:16;17.90;99.90
20795;DHT22;28087;-33.874;151.240;2022-12-19T14:16:29;17.90;99.90
20795;DHT22;28087;-33.874;151.240;2022-12-19T14:19:22;17.90;99.90
20795;DHT22;28087;-33.874;151.240;2022-12-19T14:22:13;17.80;99.90
20795;DHT22;28087;-33.874;151.240;2022-12-19T16:45:34;17.30;99.90
20795;DHT22;28087;-33.874;151.240;2022-12-19T16:48:21;17.20;99.90
20795;DHT22;28087;-33.874;151.240;2022-12-19T16:50:58;17.20;99.90
20795;DHT22;28087;-33.874;151.240;2022-12-19T16:53:35;17.20;99.90
20795;DHT22;28087;-33.874;151.240;2022-12-19T16:56:22;17.20;99.90
20795;DHT22;28087;-33.874;151.240;2022-12-19T16:59:01;17.20;99.90
20795;DHT22;28087;-33.874;151.240;2022-12-19T17:01:41;17.20;99.90
20795;DHT22;28087;-33.874;151.240;2022-12-19T17:04:23;17.20;99.90
20795;DHT22;28087;-33.874;151.240;2022-12-19T17:06:59;17.10;99.90
20795;DHT22;28087;-33.874;151.240;2022-12-19T17:09:35;17.10;99.90
20795;DHT22;28087;-33.874;151.240;2022-12-19T17:12:15;17.10;99.90
20795;DHT22;28087;-33.874;151.240;2022-12-19T17:14:52;17.10;99.90
20795;DHT22;28087;-33.874;151.240;2022-12-19T17:17:28;17.10;99.90
20795;DHT22;28087;-33.874;151.240;2022-12-19T17:20:13;17.10;99.90
20795;DHT22;28087;-33.874;151.240;2022-12-19T17:22:52;17.10;99.90
20795;DHT22;28087;-33.874;151.240;2022-12-19T17:25:29;16.90;99.90
20795;DHT22;28087;-33.874;151.240;2022-12-19T17:28:07;17.00;99.90
20795;DHT22;28087;-33.874;151.240;2022-12-19T17:30:47;17.00;99.90
20795;DHT22;28087;-33.874;151.240;2022-12-19T17:33:27;17.00;99.90
20795;DHT22;28087;-33.874;151.240;2022-12-19T17:36:12;17.00;99.90
20795;DHT22;28087;-33.874;151.240;2022-12-19T17:38:55;17.00;99.90
20795;DHT22;28087;-33.874;151.240;2022-12-19T17:41:31;17.00;99.90
20795;DHT22;28087;-33.874;151.240;2022-12-19T17:44:07;17.00;99.90
20795;DHT22;28087;-33.874;151.240;2022-12-19T17:46:44;17.00;99.90
20795;DHT22;28087;-33.874;151.240;2022-12-19T17:49:25;17.00;99.90
20795;DHT22;28087;-33.874;151.240;2022-12-19T17:52:07;17.00;99.90
20795;DHT22;28087;-33.874;151.240;2022-12-19T17:54:46;17.00;99.90
20795;DHT22;28087;-33.874;151.240;2022-12-19T17:57:22;17.00;99.90
20795;DHT22;28087;-33.874;151.240;2022-12-19T17:59:58;17.00;99.90
20795;DHT22;28087;-33.874;151.240;2022-12-19T18:02:41;17.00;99.90
20795;DHT22;28087;-33.874;151.240;2022-12-19T18:05:19;16.90;99.90
20795;DHT22;28087;-33.874;151.240;2022-12-19T18:07:58;16.90;99.90
20795;DHT22;28087;-33.874;151.240;2022-12-19T18:10:34;16.80;99.90
20795;DHT22;28087;-33.874;151.240;2022-12-19T18:13:10;16.80;99.90
20795;DHT22;28087;-33.874;151.240;2022-12-19T18:15:47;16.90;99.90
20795;DHT22;28087;-33.874;151.240;2022-12-19T18:18:28;16.90;99.90
20795;DHT22;28087;-33.874;151.240;2022-12-19T18:21:05;16.90;99.90
20795;DHT22;28087;-33.874;151.240;2022-12-19T18:23:45;16.90;99.90
20795;DHT22;28087;-33.874;151.240;2022-12-19T18:26:21;16.90;99.90
20795;DHT22;28087;-33.874;151.240;2022-12-19T18:28:58;16.90;99.90
20795;DHT22;28087;-33.874;151.240;2022-12-19T18:31:35;16.90;99.90
20795;DHT22;28087;-33.874;151.240;2022-12-19T18:34:21;16.90;99.90
20795;DHT22;28087;-33.874;151.240;2022-12-19T18:36:58;16.90;99.90
20795;DHT22;28087;-33.874;151.240;2022-12-19T18:39:39;16.90;99.90
20795;DHT22;28087;-33.874;151.240;2022-12-19T18:42:20;16.90;99.90
20795;DHT22;28087;-33.874;151.240;2022-12-19T18:44:56;16.90;99.90
20795;DHT22;28087;-33.874;151.240;2022-12-19T18:47:35;16.90;99.90
20795;DHT22;28087;-33.874;151.240;2022-12-19T18:50:17;16.90;99.90
20795;DHT22;28087;-33.874;151.240;2022-12-19T18:52:54;16.90;99.90
20795;DHT22;28087;-33.874;151.240;2022-12-19T18:55:33;16.90;99.90
20795;DHT22;28087;-33.874;151.240;2022-12-19T18:58:10;16.90;99.90
20795;DHT22;28087;-33.874;151.240;2022-12-19T19:00:47;16.80;99.90
20795;DHT22;28087;-33.874;151.240;2022-12-19T19:03:31;16.90;99.90
20795;DHT22;28087;-33.874;151.240;2022-12-19T19:06:17;16.90;99.90
20795;DHT22;28087;-33.874;151.240;2022-12-19T19:08:57;16.90;99.90
20795;DHT22;28087;-33.874;151.240;2022-12-19T19:11:56;16.90;99.90
20795;DHT22;28087;-33.874;151.240;2022-12-19T19:14:32;16.90;99.90
20795;DHT22;28087;-33.874;151.240;2022-12-19T19:17:16;16.90;99.90
20795;DHT22;28087;-33.874;151.240;2022-12-19T19:19:55;16.90;99.90
20795;DHT22;28087;-33.874;151.240;2022-12-19T19:22:31;16.90;99.90
20795;DHT22;28087;-33.874;151.240;2022-12-19T19:25:09;17.00;99.90
20795;DHT22;28087;-33.874;151.240;2022-12-19T19:27:48;17.00;99.90
20795;DHT22;28087;-33.874;151.240;2022-12-19T19:30:24;17.00;99.90
20795;DHT22;28087;-33.874;151.240;2022-12-19T19:33:05;16.90;99.90
20795;DHT22;28087;-33.874;151.240;2022-12-19T19:35:43;16.90;99.90
20795;DHT22;28087;-33.874;151.240;2022-12-19T19:38:20;16.90;99.90
20795;DHT22;28087;-33.874;151.240;2022-12-19T19:40:57;17.00;99.90
20795;DHT22;28087;-33.874;151.240;2022-12-19T19:43:36;17.00;99.90
20795;DHT22;28087;-33.874;151.240;2022-12-19T19:46:12;16.90;99.90
20795;DHT22;28087;-33.874;151.240;2022-12-19T19:48:48;17.00;99.90
20795;DHT22;28087;-33.874;151.240;2022-12-19T19:51:24;17.00;99.90
20795;DHT22;28087;-33.874;151.240;2022-12-19T19:54:00;17.00;99.90
20795;DHT22;28087;-33.874;151.240;2022-12-19T19:56:37;17.00;99.90
20795;DHT22;28087;-33.874;151.240;2022-12-19T19:59:18;16.90;99.90
20795;DHT22;28087;-33.874;151.240;2022-12-19T20:01:55;17.00;99.90
20795;DHT22;28087;-33.874;151.240;2022-12-19T20:04:31;17.10;99.90
20795;DHT22;28087;-33.874;151.240;2022-12-19T20:07:08;17.10;99.90
20795;DHT22;28087;-33.874;151.240;2022-12-19T20:09:44;17.10;99.90
20795;DHT22;28087;-33.874;151.240;2022-12-19T20:12:21;17.20;99.90
20795;DHT22;28087;-33.874;151.240;2022-12-19T20:15:01;17.20;99.90
20795;DHT22;28087;-33.874;151.240;2022-12-19T20:17:39;17.30;99.90
20795;DHT22;28087;-33.874;151.240;2022-12-19T20:20:19;17.20;99.90
20795;DHT22;28087;-33.874;151.240;2022-12-19T20:22:55;17.10;99.90
20795;DHT22;28087;-33.874;151.240;2022-12-19T20:25:32;17.20;99.90
20795;DHT22;28087;-33.874;151.240;2022-12-19T20:28:29;17.10;99.90
20795;DHT22;28087;-33.874;151.240;2022-12-19T20:31:15;17.30;99.90
20795;DHT22;28087;-33.874;151.240;2022-12-19T20:34:05;17.40;99.90
20795;DHT22;28087;-33.874;151.240;2022-12-19T20:36:44;17.50;99.90
20795;DHT22;28087;-33.874;151.240;2022-12-19T20:39:24;17.50;99.90
20795;DHT22;28087;-33.874;151.240;2022-12-19T20:42:07;17.50;99.90
20795;DHT22;28087;-33.874;151.240;2022-12-19T20:47:27;17.60;99.90
20795;DHT22;28087;-33.874;151.240;2022-12-19T20:50:07;17.60;99.90
20795;DHT22;28087;-33.874;151.240;2022-12-19T20:52:50;17.60;99.90
20795;DHT22;28087;-33.874;151.240;2022-12-19T20:55:27;17.60;99.90
20795;DHT22;28087;-33.874;151.240;2022-12-19T21:00:51;17.70;99.90
20795;DHT22;28087;-33.874;151.240;2022-12-19T22:25:13;19.40;99.90
20795;DHT22;28087;-33.874;151.240;2022-12-19T22:27:55;19.50;99.90
20795;DHT22;28087;-33.874;151.240;2022-12-19T22:33:11;19.40;99.90
20795;DHT22;28087;-33.874;151.240;2022-12-19T22:35:47;19.60;99.90
20795;DHT22;28087;-33.874;151.240;2022-12-19T22:38:25;19.50;99.90
20795;DHT22;28087;-33.874;151.240;2022-12-19T22:41:03;19.60;99.90
20795;DHT22;28087;-33.874;151.240;2022-12-19T22:43:39;19.60;99.90
20795;DHT22;28087;-33.874;151.240;2022-12-19T22:46:16;19.60;99.90
20795;DHT22;28087;-33.874;151.240;2022-12-19T22:48:56;19.60;99.90
20795;DHT22;28087;-33.874;151.240;2022-12-19T22:51:34;19.50;99.90
20795;DHT22;28087;-33.874;151.240;2022-12-19T22:54:13;19.50;99.90
20795;DHT22;28087;-33.874;151.240;2022-12-19T22:56:53;19.50;99.90
20795;DHT22;28087;-33.874;151.240;2022-12-19T22:59:30;19.50;99.90
20795;DHT22;28087;-33.874;151.240;2022-12-19T23:02:06;19.60;99.90
20795;DHT22;28087;-33.874;151.240;2022-12-19T23:04:51;19.60;99.90
20795;DHT22;28087;-33.874;151.240;2022-12-19T23:07:27;19.70;99.90
20795;DHT22;28087;-33.874;151.240;2022-12-19T23:10:06;19.90;99.90
20795;DHT22;28087;-33.874;151.240;2022-12-19T23:12:43;20.10;99.90
20795;DHT22;28087;-33.874;151.240;2022-12-19T23:15:19;20.10;99.90
20795;DHT22;28087;-33.874;151.240;2022-12-19T23:17:55;20.30;99.90
20795;DHT22;28087;-33.874;151.240;2022-12-19T23:20:32;20.40;99.90
20795;DHT22;28087;-33.874;151.240;2022-12-19T23:23:09;20.40;99.90
20795;DHT22;28087;-33.874;151.240;2022-12-19T23:25:49;20.50;99.90
20795;DHT22;28087;-33.874;151.240;2022-12-19T23:28:26;20.50;99.90
20795;DHT22;28087;-33.874;151.240;2022-12-19T23:31:04;20.60;99.90
20795;DHT22;28087;-33.874;151.240;2022-12-19T23:33:42;20.70;99.90
20795;DHT22;28087;-33.874;151.240;2022-12-19T23:36:29;20.70;99.90
20795;DHT22;28087;-33.874;151.240;2022-12-19T23:39:24;20.80;99.90
20795;DHT22;28087;-33.874;151.240;2022-12-19T23:42:06;20.70;99.90
20795;DHT22;28087;-33.874;151.240;2022-12-19T23:44:49;20.70;99.90
20795;DHT22;28087;-33.874;151.240;2022-12-19T23:47:24;20.50;99.90
20795;DHT22;28087;-33.874;151.240;2022-12-19T23:50:00;20.50;99.90
20795;DHT22;28087;-33.874;151.240;2022-12-19T23:52:37;20.50;99.90
20795;DHT22;28087;-33.874;151.240;2022-12-19T23:55:13;20.60;99.90
